createdAt,value
2022-12-06T00:01:47.438Z,84.08
2022-12-06T00:04:16.276Z,82.65
2022-12-06T00:06:47.995Z,81.30
2022-12-06T00:09:30.848Z,80.04
2022-12-06T00:11:58.243Z,82.13
2022-12-06T00:14:26.349Z,81.87
2022-12-06T00:16:52.866Z,82.16
2022-12-06T00:19:21.812Z,82.10
2022-12-06T00:21:49.483Z,81.40
2022-12-06T00:24:18.789Z,80.42
2022-12-06T00:26:47.283Z,80.45
2022-12-06T00:29:17.781Z,82.73
2022-12-06T00:31:44.713Z,81.07
2022-12-06T00:34:11.413Z,82.72
2022-12-06T00:36:40.065Z,82.01
2022-12-06T00:39:12.243Z,82.62
2022-12-06T00:41:39.134Z,81.26
2022-12-06T00:44:05.875Z,82.50
2022-12-06T00:46:33.613Z,82.73
2022-12-06T00:49:01.327Z,80.63
2022-12-06T00:51:29.623Z,82.06
2022-12-06T00:53:56.365Z,81.86
2022-12-06T00:56:22.876Z,81.51
2022-12-06T00:58:49.358Z,82.04
2022-12-06T01:01:21.642Z,80.84
2022-12-06T01:03:52.026Z,82.32
2022-12-06T01:06:20.471Z,80.27
2022-12-06T01:08:46.955Z,82.79
2022-12-06T01:11:15.532Z,82.14
2022-12-06T01:13:43.294Z,81.43
2022-12-06T01:16:13.108Z,83.49
2022-12-06T01:18:40.529Z,81.97
2022-12-06T01:21:08.834Z,81.94
2022-12-06T01:23:36.170Z,84.18
2022-12-06T01:26:04.550Z,81.29
2022-12-06T01:28:31.136Z,79.94
2022-12-06T01:30:57.814Z,81.07
2022-12-06T01:33:24.349Z,82.16
2022-12-06T01:35:50.776Z,81.93
2022-12-06T01:38:17.234Z,80.32
2022-12-06T01:40:46.489Z,81.37
2022-12-06T01:43:31.640Z,83.28
2022-12-06T01:46:03.443Z,82.12
2022-12-06T01:48:29.941Z,81.57
2022-12-06T01:50:57.877Z,82.44
2022-12-06T01:53:25.776Z,84.43
2022-12-06T01:55:53.600Z,82.35
2022-12-06T01:58:25.019Z,83.28
2022-12-06T02:00:51.952Z,80.65
2022-12-06T02:03:24.007Z,82.78
2022-12-06T02:05:51.641Z,81.90
2022-12-06T02:08:20.807Z,82.05
2022-12-06T02:10:47.266Z,81.29
2022-12-06T02:13:14.344Z,83.42
2022-12-06T02:15:48.775Z,83.06
2022-12-06T02:18:23.635Z,80.67
2022-12-06T02:21:10.262Z,79.92
2022-12-06T02:23:43.483Z,80.18
2022-12-06T02:26:36.710Z,82.52
2022-12-06T02:29:37.988Z,83.02
2022-12-06T02:32:26.229Z,82.58
2022-12-06T02:35:19.364Z,81.91
2022-12-06T02:38:16.776Z,80.83
2022-12-06T02:40:54.433Z,80.36
2022-12-06T02:43:25.883Z,81.74
2022-12-06T02:45:56.923Z,80.95
2022-12-06T02:48:25.858Z,80.72
2022-12-06T02:51:00.001Z,81.01
2022-12-06T02:53:29.074Z,80.18
2022-12-06T02:55:57.119Z,81.83
2022-12-06T02:58:23.620Z,80.77
2022-12-06T03:00:56.619Z,81.29
2022-12-06T03:03:35.534Z,79.63
2022-12-06T03:06:02.082Z,80.92
2022-12-06T03:08:46.480Z,81.08
2022-12-06T03:11:13.787Z,82.05
2022-12-06T03:13:55.276Z,82.29
2022-12-06T03:16:28.199Z,81.29
2022-12-06T03:19:12.856Z,81.51
2022-12-06T03:22:06.523Z,82.48
2022-12-06T03:24:36.123Z,83.01
2022-12-06T03:27:09.357Z,83.65
2022-12-06T03:29:41.915Z,81.87
2022-12-06T03:32:09.728Z,81.25
2022-12-06T03:34:39.111Z,81.60
2022-12-06T03:37:09.269Z,82.81
2022-12-06T03:39:42.101Z,80.99
2022-12-06T03:42:09.620Z,83.84
2022-12-06T03:44:36.898Z,81.23
2022-12-06T03:47:11.150Z,81.87
2022-12-06T03:50:00.824Z,80.18
2022-12-06T03:52:29.451Z,82.14
2022-12-06T03:54:55.982Z,82.47
2022-12-06T03:57:22.437Z,82.12
2022-12-06T03:59:48.885Z,79.81
2022-12-06T04:02:15.386Z,80.17
2022-12-06T04:04:41.835Z,81.61
2022-12-06T04:07:10.286Z,81.61
2022-12-06T04:09:55.248Z,80.90
2022-12-06T04:12:41.583Z,82.20
2022-12-06T04:15:09.210Z,84.08
2022-12-06T04:17:57.146Z,81.29
2022-12-06T04:20:24.330Z,82.74
2022-12-06T04:23:05.525Z,81.70
2022-12-06T04:25:36.113Z,82.41
2022-12-06T04:28:22.356Z,80.61
2022-12-06T04:31:07.413Z,82.40
2022-12-06T04:33:52.492Z,81.75
2022-12-06T04:36:37.273Z,81.23
2022-12-06T04:39:03.941Z,83.34
2022-12-06T04:41:49.008Z,82.47
2022-12-06T04:44:15.697Z,81.70
2022-12-06T04:46:42.278Z,79.95
2022-12-06T04:49:08.853Z,81.24
2022-12-06T04:51:35.338Z,83.62
2022-12-06T04:54:02.083Z,82.76
2022-12-06T04:56:28.593Z,80.67
2022-12-06T04:58:55.080Z,80.33
2022-12-06T05:01:21.589Z,79.82
2022-12-06T05:03:48.251Z,81.17
2022-12-06T05:06:14.843Z,83.68
2022-12-06T05:08:41.416Z,81.56
2022-12-06T05:11:07.849Z,81.32
2022-12-06T05:13:34.370Z,82.62
2022-12-06T05:16:04.594Z,82.46
2022-12-06T05:18:33.686Z,83.41
2022-12-06T05:21:13.848Z,82.21
2022-12-06T05:23:41.125Z,83.23
2022-12-06T05:26:11.652Z,82.88
2022-12-06T05:28:38.323Z,83.08
2022-12-06T05:31:04.988Z,81.63
2022-12-06T05:33:31.721Z,82.98
2022-12-06T05:35:58.326Z,82.41
2022-12-06T05:38:24.799Z,81.24
2022-12-06T05:40:51.969Z,81.22
2022-12-06T05:43:18.382Z,81.15
2022-12-06T05:45:44.978Z,81.22
2022-12-06T05:48:11.493Z,83.74
2022-12-06T05:50:38.053Z,82.01
2022-12-06T05:53:04.457Z,80.22
2022-12-06T05:55:30.944Z,83.47
2022-12-06T05:57:57.387Z,84.44
2022-12-06T06:00:23.893Z,81.50
2022-12-06T06:02:50.554Z,83.44
2022-12-06T06:05:17.370Z,82.13
2022-12-06T06:07:43.950Z,84.17
2022-12-06T06:10:10.813Z,82.98
2022-12-06T06:12:37.344Z,84.44
2022-12-06T06:15:07.003Z,83.69
2022-12-06T06:17:34.886Z,81.02
2022-12-06T06:20:05.624Z,81.04
2022-12-06T06:22:37.285Z,83.07
2022-12-06T06:25:04.378Z,82.56
2022-12-06T06:27:39.620Z,84.70
2022-12-06T06:30:09.330Z,82.17
2022-12-06T06:32:36.081Z,80.14
2022-12-06T06:35:03.526Z,82.20
2022-12-06T06:37:29.986Z,83.09
2022-12-06T06:39:56.532Z,82.69
2022-12-06T06:42:22.937Z,83.54
2022-12-06T06:44:49.474Z,83.84
2022-12-06T06:47:15.956Z,85.05
2022-12-06T06:49:42.651Z,81.49
2022-12-06T06:52:09.164Z,84.27
2022-12-06T06:54:35.606Z,83.93
2022-12-06T06:57:02.972Z,84.13
2022-12-06T06:59:29.473Z,82.76
2022-12-06T07:01:56.141Z,83.87
2022-12-06T07:04:22.778Z,83.64
2022-12-06T07:06:49.242Z,82.85
2022-12-06T07:09:15.682Z,83.32
2022-12-06T07:11:42.300Z,83.38
2022-12-06T07:14:08.736Z,83.81
2022-12-06T07:16:35.296Z,84.08
2022-12-06T07:19:07.590Z,83.71
2022-12-06T07:21:35.533Z,83.93
2022-12-06T07:24:02.013Z,83.03
2022-12-06T07:26:29.067Z,82.43
2022-12-06T07:28:57.727Z,84.10
2022-12-06T07:31:27.937Z,83.57
2022-12-06T07:33:56.935Z,81.98
2022-12-06T07:36:24.986Z,82.96
2022-12-06T07:38:54.153Z,81.14
2022-12-06T07:41:40.932Z,84.00
2022-12-06T07:44:28.673Z,86.08
2022-12-06T07:46:56.048Z,83.19
2022-12-06T07:49:23.062Z,81.65
2022-12-06T07:51:49.544Z,83.72
2022-12-06T07:54:16.784Z,83.80
2022-12-06T07:56:44.367Z,82.64
2022-12-06T07:59:10.989Z,84.75
2022-12-06T08:01:37.631Z,83.82
2022-12-06T08:04:05.429Z,82.20
2022-12-06T08:06:33.412Z,85.05
2022-12-06T08:09:00.246Z,86.87
2022-12-06T08:11:26.994Z,84.31
2022-12-06T08:13:53.380Z,84.14
2022-12-06T08:16:19.854Z,86.30
2022-12-06T08:18:46.366Z,85.30
2022-12-06T08:21:13.296Z,85.30
2022-12-06T08:23:39.775Z,86.22
2022-12-06T08:26:12.376Z,88.13
2022-12-06T08:28:39.427Z,87.09
2022-12-06T08:31:07.985Z,86.07
2022-12-06T08:33:35.113Z,84.38
2022-12-06T08:36:01.740Z,83.53
2022-12-06T08:38:28.694Z,85.67
2022-12-06T08:40:55.148Z,87.29
2022-12-06T08:43:21.554Z,85.84
2022-12-06T08:45:52.335Z,87.60
2022-12-06T08:48:18.959Z,86.77
2022-12-06T08:50:45.430Z,86.86
2022-12-06T08:53:11.826Z,87.87
2022-12-06T08:55:38.653Z,85.77
2022-12-06T08:58:05.057Z,86.13
2022-12-06T09:00:31.570Z,84.75
2022-12-06T09:02:58.078Z,84.82
2022-12-06T09:05:24.515Z,86.88
2022-12-06T09:07:51.002Z,86.41
2022-12-06T09:10:17.547Z,83.44
2022-12-06T09:12:43.954Z,84.90
2022-12-06T09:15:10.891Z,84.98
2022-12-06T09:17:37.331Z,84.37
2022-12-06T09:20:06.391Z,82.43
2022-12-06T09:22:33.198Z,82.77
2022-12-06T09:27:30.477Z,81.91
2022-12-06T09:29:56.884Z,83.50
2022-12-06T09:32:23.344Z,83.73
2022-12-06T09:34:49.749Z,85.42
2022-12-06T09:37:16.197Z,83.45
2022-12-06T09:40:11.709Z,84.94
2022-12-06T09:42:50.697Z,85.18
2022-12-06T09:45:40.844Z,85.32
2022-12-06T09:48:50.566Z,84.53
2022-12-06T09:51:19.665Z,83.23
2022-12-06T09:54:17.210Z,85.63
2022-12-06T09:56:52.077Z,84.72
2022-12-06T09:59:18.457Z,84.55
2022-12-06T10:02:25.088Z,84.92
2022-12-06T10:05:10.040Z,87.60
2022-12-06T10:07:50.625Z,84.55
2022-12-06T10:10:37.966Z,83.92
2022-12-06T10:13:12.849Z,83.62
2022-12-06T10:15:57.781Z,85.26
2022-12-06T10:18:24.232Z,85.31
2022-12-06T10:21:16.349Z,83.21
2022-12-06T10:24:20.583Z,85.49
2022-12-06T10:26:53.052Z,85.10
2022-12-06T10:29:27.369Z,84.92
2022-12-06T10:32:04.226Z,86.40
2022-12-06T10:34:51.809Z,85.83
2022-12-06T10:37:30.135Z,86.59
2022-12-06T10:40:22.363Z,88.17
2022-12-06T10:43:13.405Z,86.45
2022-12-06T10:46:30.880Z,85.22
2022-12-06T10:49:11.351Z,83.74
2022-12-06T10:51:50.614Z,85.88
2022-12-06T10:54:36.205Z,87.71
2022-12-06T10:57:08.066Z,88.62
2022-12-06T10:59:42.445Z,85.93
2022-12-06T11:02:27.702Z,85.25
2022-12-06T11:05:01.888Z,86.51
2022-12-06T11:07:37.925Z,83.88
2022-12-06T11:10:15.965Z,85.64
2022-12-06T11:12:43.430Z,86.16
2022-12-06T11:15:35.104Z,85.95
2022-12-06T11:18:18.956Z,85.88
2022-12-06T11:20:58.671Z,86.10
2022-12-06T11:23:48.327Z,85.96
2022-12-06T11:26:30.844Z,84.90
2022-12-06T11:29:09.968Z,84.47
2022-12-06T11:31:57.531Z,85.50
2022-12-06T11:34:33.443Z,86.40
2022-12-06T11:37:03.044Z,87.78
2022-12-06T11:39:31.196Z,87.51
2022-12-06T11:42:02.262Z,88.27
2022-12-06T11:44:38.464Z,89.17
2022-12-06T11:47:06.468Z,89.29
2022-12-06T11:49:40.005Z,86.98
2022-12-06T11:52:13.062Z,87.40
2022-12-06T11:55:04.307Z,85.80
2022-12-06T11:57:38.430Z,85.78
2022-12-06T12:00:26.148Z,87.11
2022-12-06T12:02:55.717Z,85.35
2022-12-06T12:05:22.659Z,88.14
2022-12-06T12:08:01.810Z,88.37
2022-12-06T12:10:31.639Z,85.39
2022-12-06T12:13:34.984Z,84.65
2022-12-06T12:16:13.863Z,87.54
2022-12-06T12:18:50.529Z,87.84
2022-12-06T12:21:27.931Z,89.42
2022-12-06T12:23:54.364Z,86.09
2022-12-06T12:26:22.177Z,86.18
2022-12-06T12:29:20.696Z,87.94
2022-12-06T12:31:51.924Z,87.92
2022-12-06T12:34:21.816Z,89.38
2022-12-06T12:37:03.883Z,87.41
2022-12-06T12:39:40.938Z,86.57
2022-12-06T12:42:26.142Z,84.47
2022-12-06T12:44:58.632Z,86.05
2022-12-06T12:47:25.817Z,88.82
2022-12-06T12:50:01.159Z,87.47
2022-12-06T12:52:39.389Z,86.47
2022-12-06T12:55:15.564Z,87.50
2022-12-06T12:57:45.200Z,84.51
2022-12-06T13:00:24.423Z,85.41
2022-12-06T13:02:55.426Z,85.83
2022-12-06T13:05:34.972Z,85.24
2022-12-06T13:08:21.326Z,86.70
2022-12-06T13:10:55.655Z,84.20
2022-12-06T13:13:37.235Z,86.05
2022-12-06T13:16:11.804Z,85.34
2022-12-06T13:18:46.269Z,85.75
2022-12-06T13:21:43.617Z,86.65
2022-12-06T13:24:09.968Z,85.94
2022-12-06T13:26:39.094Z,85.69
2022-12-06T13:29:22.719Z,84.64
2022-12-06T13:31:52.309Z,85.87
2022-12-06T13:34:39.981Z,84.42
2022-12-06T13:37:29.763Z,84.25
2022-12-06T13:39:57.123Z,83.67
2022-12-06T13:42:45.462Z,84.66
2022-12-06T13:45:40.352Z,83.13
2022-12-06T13:48:25.583Z,83.82
2022-12-06T13:50:55.032Z,82.25
2022-12-06T13:53:24.575Z,85.40
2022-12-06T13:56:28.013Z,84.23
2022-12-06T13:58:57.046Z,84.71
2022-12-06T14:01:39.928Z,83.42
2022-12-06T14:06:53.856Z,82.84
2022-12-06T14:09:21.281Z,85.89
2022-12-06T14:11:47.754Z,85.85
2022-12-06T14:14:17.184Z,84.64
2022-12-06T14:16:49.802Z,83.42
2022-12-06T14:19:18.886Z,85.73
2022-12-06T14:21:59.049Z,84.51
2022-12-06T14:24:27.137Z,86.18
2022-12-06T14:26:53.527Z,85.39
2022-12-06T14:29:24.744Z,86.13
2022-12-06T14:31:52.019Z,83.53
2022-12-06T14:34:33.137Z,84.03
2022-12-06T14:37:01.494Z,83.87
2022-12-06T14:39:32.379Z,86.24
2022-12-06T14:42:32.478Z,86.90
2022-12-06T14:45:02.711Z,86.35
2022-12-06T14:47:30.253Z,86.33
2022-12-06T14:50:19.326Z,85.78
2022-12-06T14:53:06.378Z,85.61
2022-12-06T14:55:49.534Z,83.91
2022-12-06T14:58:19.982Z,84.03
2022-12-06T15:00:53.668Z,86.07
2022-12-06T15:03:25.493Z,86.97
2022-12-06T15:06:12.906Z,86.16
2022-12-06T15:08:51.824Z,86.40
2022-12-06T15:11:38.533Z,85.76
2022-12-06T15:14:24.099Z,85.31
2022-12-06T15:17:04.578Z,84.05
2022-12-06T15:19:34.053Z,85.29
2022-12-06T15:22:01.005Z,86.17
2022-12-06T15:24:28.599Z,85.24
2022-12-06T15:26:55.192Z,87.12
2022-12-06T15:29:22.101Z,83.96
2022-12-06T15:31:53.901Z,86.13
2022-12-06T15:34:32.122Z,85.63
2022-12-06T15:37:36.482Z,84.47
2022-12-06T15:39:46.720Z,84.30
2022-12-06T15:42:21.774Z,82.75
2022-12-06T15:44:50.167Z,83.55
2022-12-06T15:47:20.041Z,85.89
2022-12-06T15:49:46.917Z,85.87
2022-12-06T15:52:18.631Z,82.63
2022-12-06T15:54:45.305Z,82.44
2022-12-06T15:57:11.793Z,81.81
2022-12-06T15:59:38.200Z,81.02
2022-12-06T16:02:15.463Z,82.25
2022-12-06T16:04:43.074Z,81.61
2022-12-06T16:07:10.525Z,82.98
2022-12-06T16:09:37.021Z,80.05
2022-12-06T16:12:03.979Z,82.13
2022-12-06T16:14:30.375Z,84.17
2022-12-06T16:16:56.761Z,83.71
2022-12-06T16:19:23.200Z,82.07
2022-12-06T16:21:55.557Z,82.38
2022-12-06T16:24:22.672Z,82.59
2022-12-06T16:26:49.378Z,84.84
2022-12-06T16:29:17.877Z,82.82
2022-12-06T16:31:45.183Z,84.10
2022-12-06T16:34:12.096Z,81.31
2022-12-06T16:36:58.683Z,80.57
2022-12-06T16:39:26.006Z,81.67
2022-12-06T16:41:52.509Z,82.93
2022-12-06T16:44:18.986Z,82.19
2022-12-06T16:46:46.448Z,82.00
2022-12-06T16:52:11.677Z,81.73
2022-12-06T16:54:41.057Z,84.61
2022-12-06T16:57:08.128Z,82.44
2022-12-06T16:59:35.156Z,81.09
2022-12-06T17:02:01.734Z,84.95
2022-12-06T17:04:30.612Z,83.79
2022-12-06T17:06:57.072Z,82.65
2022-12-06T17:09:23.510Z,83.11
2022-12-06T17:12:06.770Z,82.53
2022-12-06T17:14:33.747Z,82.83
2022-12-06T17:17:03.859Z,80.03
2022-12-06T17:19:32.135Z,79.64
2022-12-06T17:21:59.446Z,81.44
2022-12-06T17:24:26.868Z,81.32
2022-12-06T17:26:56.586Z,81.36
2022-12-06T17:29:23.894Z,81.42
2022-12-06T17:31:51.356Z,79.29
2022-12-06T17:34:19.806Z,80.38
2022-12-06T17:36:47.860Z,81.24
2022-12-06T17:39:17.065Z,81.14
2022-12-06T17:42:02.611Z,82.07
2022-12-06T17:44:29.244Z,81.49
2022-12-06T17:46:55.975Z,81.78
2022-12-06T17:49:24.840Z,81.58
2022-12-06T17:51:51.955Z,82.09
2022-12-06T17:54:19.421Z,81.53
2022-12-06T17:56:48.351Z,80.90
2022-12-06T17:59:19.107Z,80.25
2022-12-06T18:04:32.418Z,78.16
2022-12-06T18:06:58.847Z,79.13
2022-12-06T18:09:25.578Z,77.51
2022-12-06T18:11:52.108Z,79.89
2022-12-06T18:14:18.943Z,80.55
2022-12-06T18:16:46.533Z,80.00
2022-12-06T18:19:18.234Z,77.30
2022-12-06T18:21:45.423Z,77.25
2022-12-06T18:24:23.259Z,78.64
2022-12-06T18:26:52.121Z,79.45
2022-12-06T18:29:20.966Z,80.53
2022-12-06T18:31:47.889Z,79.02
2022-12-06T18:34:15.288Z,79.57
2022-12-06T18:36:41.949Z,79.72
2022-12-06T18:39:15.457Z,78.75
2022-12-06T18:41:45.333Z,77.22
2022-12-06T18:44:12.829Z,76.01
2022-12-06T18:46:41.933Z,76.91
2022-12-06T18:49:10.075Z,77.11
2022-12-06T18:51:38.587Z,78.93
2022-12-06T18:54:06.058Z,77.33
2022-12-06T18:56:33.675Z,78.60
2022-12-06T18:59:02.853Z,79.64
2022-12-06T19:01:31.940Z,76.92
2022-12-06T19:04:00.710Z,79.17
2022-12-06T19:06:29.930Z,79.17
2022-12-06T19:08:59.632Z,77.58
2022-12-06T19:11:26.118Z,78.82
2022-12-06T19:13:57.884Z,77.77
2022-12-06T19:16:26.777Z,81.00
2022-12-06T19:18:55.402Z,80.47
2022-12-06T19:21:22.954Z,81.24
2022-12-06T19:23:51.987Z,78.48
2022-12-06T19:26:18.869Z,80.74
2022-12-06T19:28:45.306Z,79.48
2022-12-06T19:31:13.742Z,80.92
2022-12-06T19:33:43.202Z,80.02
2022-12-06T19:36:15.856Z,79.59
2022-12-06T19:38:43.325Z,80.82
2022-12-06T19:41:13.131Z,81.27
2022-12-06T19:43:58.489Z,78.69
2022-12-06T19:46:27.120Z,82.46
2022-12-06T19:48:57.265Z,80.72
2022-12-06T19:51:26.687Z,82.92
2022-12-06T19:53:53.091Z,82.67
2022-12-06T19:56:20.200Z,83.68
2022-12-06T19:58:47.443Z,81.94
2022-12-06T20:01:18.640Z,81.11
2022-12-06T20:03:47.092Z,83.04
2022-12-06T20:06:18.305Z,80.67
2022-12-06T20:08:45.934Z,82.01
2022-12-06T20:11:33.437Z,79.28
2022-12-06T20:14:01.630Z,79.73
2022-12-06T20:16:28.077Z,78.68
2022-12-06T20:18:54.613Z,77.65
2022-12-06T20:21:21.096Z,78.14
2022-12-06T20:23:47.678Z,77.40
2022-12-06T20:26:15.170Z,77.16
2022-12-06T20:28:46.572Z,77.21
2022-12-06T20:31:18.720Z,77.58
2022-12-06T20:33:45.761Z,77.47
2022-12-06T20:36:17.786Z,76.80
2022-12-06T20:38:44.415Z,77.11
2022-12-06T20:41:16.574Z,76.91
2022-12-06T20:43:44.267Z,76.22
2022-12-06T20:46:15.450Z,76.69
2022-12-06T20:48:43.208Z,76.56
2022-12-06T20:51:15.640Z,77.84
2022-12-06T20:53:42.847Z,77.38
2022-12-06T20:56:11.598Z,76.96
2022-12-06T20:58:38.728Z,77.50
2022-12-06T21:01:05.694Z,78.72
2022-12-06T21:03:32.761Z,79.81
2022-12-06T21:06:01.277Z,79.11
2022-12-06T21:08:28.411Z,78.03
2022-12-06T21:11:21.542Z,79.88
2022-12-06T21:13:43.026Z,78.25
2022-12-06T21:16:14.249Z,79.42
2022-12-06T21:18:41.801Z,77.47
2022-12-06T21:21:09.233Z,78.42
2022-12-06T21:23:35.869Z,77.50
2022-12-06T21:26:03.273Z,78.18
2022-12-06T21:28:29.789Z,78.93
2022-12-06T21:30:57.161Z,80.24
2022-12-06T21:33:25.350Z,79.35
2022-12-06T21:35:52.970Z,78.87
2022-12-06T21:38:21.259Z,78.35
2022-12-06T21:40:52.976Z,78.74
2022-12-06T21:43:20.982Z,77.51
2022-12-06T21:45:47.558Z,77.13
2022-12-06T21:48:14.055Z,76.60
2022-12-06T21:50:40.530Z,77.14
2022-12-06T21:53:06.966Z,76.60
2022-12-06T21:55:33.462Z,76.25
2022-12-06T21:57:59.881Z,76.84
2022-12-06T22:00:26.390Z,75.87
2022-12-06T22:02:53.728Z,76.05
2022-12-06T22:05:20.755Z,75.80
2022-12-06T22:07:47.372Z,76.65
2022-12-06T22:10:13.882Z,76.17
2022-12-06T22:12:40.359Z,77.79
2022-12-06T22:15:07.233Z,78.50
2022-12-06T22:17:33.659Z,77.34
2022-12-06T22:20:00.501Z,76.96
2022-12-06T22:22:27.319Z,76.50
2022-12-06T22:24:54.016Z,76.22
2022-12-06T22:27:20.505Z,76.66
2022-12-06T22:29:47.564Z,76.91
2022-12-06T22:32:14.023Z,77.23
2022-12-06T22:34:40.435Z,77.50
2022-12-06T22:37:06.969Z,76.80
2022-12-06T22:39:33.381Z,76.84
2022-12-06T22:41:59.802Z,76.20
2022-12-06T22:44:26.342Z,76.33
2022-12-06T22:46:58.884Z,76.34
2022-12-06T22:49:25.391Z,76.00
2022-12-06T22:51:51.852Z,77.42
2022-12-06T22:54:18.254Z,77.10
2022-12-06T22:56:48.541Z,77.22
2022-12-06T22:59:17.040Z,76.97
2022-12-06T23:01:43.735Z,76.81
2022-12-06T23:04:11.311Z,77.24
2022-12-06T23:06:38.336Z,76.74
2022-12-06T23:09:07.280Z,77.56
2022-12-06T23:11:35.667Z,76.83
2022-12-06T23:14:05.549Z,77.62
2022-12-06T23:16:32.679Z,77.06
2022-12-06T23:19:03.500Z,77.86
2022-12-06T23:21:32.872Z,77.82
2022-12-06T23:24:02.060Z,77.33
2022-12-06T23:26:35.028Z,77.82
2022-12-06T23:29:02.480Z,76.96
2022-12-06T23:31:31.610Z,77.48
2022-12-06T23:34:01.134Z,77.49
2022-12-06T23:36:30.927Z,78.51
2022-12-06T23:38:57.655Z,77.98
2022-12-06T23:41:26.571Z,77.36
2022-12-06T23:43:53.996Z,79.03
2022-12-06T23:46:24.102Z,78.96
2022-12-06T23:48:51.409Z,77.55
2022-12-06T23:51:20.129Z,79.53
2022-12-06T23:53:52.078Z,79.41
2022-12-06T23:56:20.724Z,79.04
2022-12-06T23:58:50.252Z,78.48
